createdAt,value
2023-03-29T00:01:44.824Z,5.98
2023-03-29T00:16:47.635Z,6.08
2023-03-29T00:31:54.431Z,5.92
2023-03-29T00:46:56.287Z,6.01
2023-03-29T01:02:03.160Z,5.97
2023-03-29T01:17:06.149Z,5.80
2023-03-29T01:32:14.242Z,5.58
2023-03-29T01:48:01.461Z,5.22
2023-03-29T02:03:06.983Z,5.13
2023-03-29T02:18:09.490Z,4.87
2023-03-29T02:33:18.089Z,5.04
2023-03-29T02:48:23.825Z,4.98
2023-03-29T03:03:25.839Z,5.01
2023-03-29T03:18:28.057Z,4.96
2023-03-29T03:33:30.523Z,4.95
2023-03-29T03:48:32.580Z,4.87
2023-03-29T04:03:35.122Z,5.00
2023-03-29T04:18:37.661Z,4.80
2023-03-29T04:33:40.058Z,5.33
2023-03-29T04:48:42.124Z,5.01
2023-03-29T05:03:44.053Z,4.82
2023-03-29T05:18:46.391Z,5.04
2023-03-29T05:33:48.551Z,5.09
2023-03-29T05:48:50.365Z,5.10
2023-03-29T06:03:52.847Z,5.21
2023-03-29T06:19:00.142Z,5.43
2023-03-29T06:34:02.818Z,5.43
2023-03-29T06:49:04.706Z,5.29
2023-03-29T07:04:09.104Z,5.28
2023-03-29T07:19:11.388Z,5.54
2023-03-29T07:34:13.313Z,5.59
2023-03-29T07:49:15.183Z,5.69
2023-03-29T08:04:17.118Z,5.78
2023-03-29T08:19:19.399Z,6.09
2023-03-29T08:34:21.562Z,6.45
2023-03-29T08:49:24.059Z,6.33
2023-03-29T09:04:34.994Z,6.15
2023-03-29T09:19:51.731Z,6.34
2023-03-29T09:35:03.591Z,6.14
2023-03-29T09:50:27.342Z,6.12
2023-03-29T10:05:37.309Z,6.38
2023-03-29T10:20:41.194Z,6.34
2023-03-29T10:35:43.785Z,6.03
2023-03-29T10:50:53.111Z,6.36
2023-03-29T11:06:07.891Z,6.28
2023-03-29T11:21:15.838Z,6.00
2023-03-29T11:36:59.190Z,5.76
2023-03-29T11:52:13.728Z,5.78
2023-03-29T12:07:41.893Z,5.78
2023-03-29T12:22:47.565Z,5.72
2023-03-29T12:38:08.448Z,5.49
2023-03-29T12:53:22.662Z,5.04
2023-03-29T13:08:36.198Z,5.07
2023-03-29T13:23:44.885Z,5.06
2023-03-29T13:38:49.461Z,5.06
2023-03-29T13:54:01.748Z,4.94
2023-03-29T14:09:09.423Z,5.02
2023-03-29T14:24:18.130Z,5.01
2023-03-29T14:39:23.901Z,4.77
2023-03-29T14:54:29.072Z,4.70
2023-03-29T15:09:34.917Z,4.65
2023-03-29T15:24:45.327Z,4.58
2023-03-29T15:39:47.334Z,4.62
2023-03-29T15:54:49.263Z,4.68
2023-03-29T16:09:51.360Z,4.81
2023-03-29T16:24:53.958Z,4.79
2023-03-29T16:39:59.033Z,5.12
2023-03-29T16:55:00.944Z,5.04
2023-03-29T17:10:04.952Z,5.11
2023-03-29T17:25:08.748Z,4.96
2023-03-29T17:40:13.967Z,5.04
2023-03-29T17:55:16.391Z,4.70
2023-03-29T18:10:18.429Z,4.74
2023-03-29T18:25:20.812Z,4.70
2023-03-29T18:40:24.969Z,4.72
2023-03-29T18:55:27.631Z,4.71
2023-03-29T19:10:29.482Z,4.67
2023-03-29T19:25:32.343Z,4.72
2023-03-29T19:40:34.640Z,4.66
2023-03-29T19:55:42.501Z,4.65
2023-03-29T20:10:44.322Z,4.49
2023-03-29T20:25:46.436Z,4.56
2023-03-29T20:40:51.489Z,4.70
2023-03-29T20:55:53.315Z,4.82
2023-03-29T21:10:56.352Z,4.42
2023-03-29T21:25:58.558Z,4.42
2023-03-29T21:41:01.089Z,4.42
2023-03-29T21:56:03.301Z,4.38
2023-03-29T22:11:11.138Z,4.47
2023-03-29T22:26:15.073Z,4.40
2023-03-29T22:41:18.504Z,4.30
2023-03-29T22:56:20.579Z,4.24
2023-03-29T23:11:22.980Z,3.95
2023-03-29T23:26:25.101Z,4.02
2023-03-29T23:41:30.777Z,4.26
2023-03-29T23:56:32.764Z,4.13
